createdAt,value
2023-05-15T00:38:54.187Z,9.74
2023-05-15T00:44:01.070Z,9.56
2023-05-15T00:49:13.317Z,9.53
2023-05-15T00:54:17.491Z,9.56
2023-05-15T00:59:21.956Z,9.52
2023-05-15T01:04:25.089Z,9.45
2023-05-15T01:09:32.299Z,9.47
2023-05-15T01:14:35.069Z,9.41
2023-05-15T01:19:37.962Z,9.40
2023-05-15T01:25:09.875Z,9.35
2023-05-15T01:30:23.137Z,9.38
2023-05-15T01:35:32.320Z,9.36
2023-05-15T01:40:35.725Z,9.31
2023-05-15T01:45:44.109Z,9.40
2023-05-15T01:50:48.333Z,9.40
2023-05-15T01:55:52.023Z,9.35
2023-05-15T02:00:57.016Z,9.26
2023-05-15T02:06:00.200Z,9.13
2023-05-15T02:11:04.424Z,9.13
2023-05-15T02:16:08.809Z,9.08
2023-05-15T02:21:11.678Z,8.94
2023-05-15T02:26:27.528Z,8.86
2023-05-15T02:31:46.291Z,8.78
2023-05-15T02:36:50.734Z,8.68
2023-05-15T02:41:54.913Z,8.56
2023-05-15T02:47:00.522Z,8.44
2023-05-15T02:52:03.349Z,8.42
2023-05-15T02:57:07.955Z,8.36
2023-05-15T03:02:12.005Z,8.35
2023-05-15T03:07:15.349Z,8.40
2023-05-15T03:12:18.075Z,8.65
2023-05-15T03:17:22.362Z,8.86
2023-05-15T03:22:25.232Z,8.99
2023-05-15T03:27:27.966Z,9.07
2023-05-15T03:32:32.127Z,9.05
2023-05-15T03:37:34.881Z,8.77
2023-05-15T03:42:37.589Z,8.62
2023-05-15T03:47:42.900Z,8.51
2023-05-15T03:52:45.840Z,8.47
2023-05-15T03:57:48.692Z,8.78
2023-05-15T04:02:52.883Z,9.02
2023-05-15T04:07:55.801Z,9.18
2023-05-15T04:12:58.824Z,9.39
2023-05-15T04:18:03.480Z,9.50
2023-05-15T04:23:06.523Z,9.62
2023-05-15T04:28:09.657Z,9.73
2023-05-15T04:33:13.922Z,9.82
2023-05-15T04:38:17.814Z,9.88
2023-05-15T04:43:21.471Z,9.98
2023-05-15T04:48:26.847Z,10.12
2023-05-15T04:53:29.603Z,10.20
2023-05-15T04:58:36.099Z,10.32
2023-05-15T05:03:40.271Z,10.48
2023-05-15T05:08:43.092Z,10.66
2023-05-15T05:13:48.023Z,10.85
2023-05-15T05:18:52.959Z,10.97
2023-05-15T05:23:56.370Z,11.11
2023-05-15T05:28:59.713Z,11.25
2023-05-15T05:34:03.867Z,11.38
2023-05-15T05:39:06.875Z,11.58
2023-05-15T05:44:09.708Z,11.72
2023-05-15T05:49:13.882Z,11.84
2023-05-15T05:54:18.925Z,12.10
2023-05-15T05:59:21.880Z,12.28
2023-05-15T06:04:29.329Z,12.35
2023-05-15T06:09:34.611Z,12.46
2023-05-15T06:14:37.942Z,12.72
2023-05-15T06:19:42.843Z,13.03
2023-05-15T06:24:45.940Z,13.17
2023-05-15T06:29:48.946Z,13.37
2023-05-15T06:34:53.080Z,13.60
2023-05-15T06:39:56.469Z,13.50
2023-05-15T06:45:03.393Z,13.71
2023-05-15T06:50:09.157Z,13.99
2023-05-15T06:55:11.961Z,14.16
2023-05-15T07:00:16.119Z,14.67
2023-05-15T07:05:21.816Z,15.30
2023-05-15T07:10:26.899Z,14.91
2023-05-15T07:15:30.000Z,15.13
2023-05-15T07:20:39.291Z,15.62
2023-05-15T07:25:43.494Z,15.64
2023-05-15T07:30:47.065Z,16.06
2023-05-15T07:35:53.028Z,15.63
2023-05-15T07:40:55.732Z,15.54
2023-05-15T07:45:58.575Z,15.67
2023-05-15T07:51:02.981Z,15.51
2023-05-15T07:56:06.777Z,15.78
2023-05-15T08:01:09.637Z,15.94
2023-05-15T08:06:13.799Z,15.32
2023-05-15T08:11:18.112Z,15.04
2023-05-15T08:16:23.570Z,14.97
2023-05-15T08:21:28.190Z,15.03
2023-05-15T08:26:30.870Z,14.97
2023-05-15T08:31:34.633Z,15.21
2023-05-15T08:36:39.998Z,15.88
2023-05-15T08:41:51.944Z,16.02
2023-05-15T08:46:58.039Z,16.38
2023-05-15T08:52:04.067Z,16.55
2023-05-15T08:57:07.298Z,16.61
2023-05-15T09:02:11.827Z,16.56
2023-05-15T09:07:17.154Z,16.16
2023-05-15T09:12:21.118Z,16.27
2023-05-15T09:17:24.725Z,16.37
2023-05-15T09:22:34.272Z,16.51
2023-05-15T09:27:43.906Z,17.35
2023-05-15T09:32:50.156Z,16.98
2023-05-15T09:38:00.979Z,17.64
2023-05-15T09:43:07.172Z,18.23
2023-05-15T09:48:14.039Z,17.83
2023-05-15T09:53:21.403Z,17.96
2023-05-15T09:58:24.413Z,17.74
2023-05-15T10:03:28.985Z,17.43
2023-05-15T10:08:37.056Z,17.45
2023-05-15T10:13:39.837Z,17.44
2023-05-15T10:18:47.122Z,18.22
2023-05-15T10:23:53.689Z,17.76
2023-05-15T10:28:58.608Z,18.48
2023-05-15T10:34:04.895Z,17.97
2023-05-15T10:39:09.993Z,18.01
2023-05-15T10:44:14.189Z,18.34
2023-05-15T10:49:17.561Z,18.60
2023-05-15T10:54:23.315Z,18.62
2023-05-15T10:59:36.422Z,18.51
2023-05-15T11:04:40.040Z,18.64
2023-05-15T11:09:44.423Z,18.51
2023-05-15T11:15:21.062Z,19.22
2023-05-15T11:20:34.477Z,19.31
2023-05-15T11:25:40.163Z,19.48
2023-05-15T11:30:44.136Z,19.70
2023-05-15T11:35:48.450Z,19.96
2023-05-15T11:40:58.094Z,20.03
2023-05-15T11:46:07.312Z,20.15
2023-05-15T11:51:21.026Z,20.39
2023-05-15T11:56:28.394Z,20.88
2023-05-15T12:01:41.244Z,21.71
2023-05-15T12:06:47.441Z,21.85
2023-05-15T12:11:54.622Z,22.67
2023-05-15T12:17:02.846Z,22.55
2023-05-15T12:22:06.963Z,23.17
2023-05-15T12:27:12.232Z,23.84
2023-05-15T12:32:17.572Z,24.57
2023-05-15T12:37:23.235Z,25.04
2023-05-15T12:42:29.215Z,25.38
2023-05-15T12:47:32.260Z,25.63
2023-05-15T12:52:37.007Z,25.95
2023-05-15T12:57:43.164Z,27.26
2023-05-15T13:02:48.688Z,27.23
2023-05-15T13:07:54.736Z,26.96
2023-05-15T13:13:00.724Z,26.99
2023-05-15T13:18:07.114Z,27.69
2023-05-15T13:23:11.200Z,27.94
2023-05-15T13:28:15.434Z,28.87
2023-05-15T13:33:18.358Z,28.65
2023-05-15T13:38:21.148Z,29.20
2023-05-15T13:43:26.548Z,29.51
2023-05-15T13:48:33.463Z,26.77
2023-05-15T13:53:40.987Z,28.96
2023-05-15T13:58:46.381Z,28.79
2023-05-15T14:03:48.988Z,28.60
2023-05-15T14:08:54.353Z,29.40
2023-05-15T14:13:59.352Z,29.45
2023-05-15T14:19:02.450Z,30.65
2023-05-15T14:24:05.861Z,33.00
2023-05-15T14:29:12.584Z,29.06
2023-05-15T14:34:15.664Z,29.76
2023-05-15T14:39:19.407Z,32.07
2023-05-15T14:44:23.578Z,31.95
2023-05-15T14:49:26.361Z,31.45
2023-05-15T14:54:31.941Z,29.06
2023-05-15T14:59:38.421Z,33.28
2023-05-15T15:04:41.219Z,32.31
2023-05-15T15:09:43.963Z,29.70
2023-05-15T15:14:48.407Z,28.68
2023-05-15T15:19:54.322Z,26.85
2023-05-15T15:24:59.804Z,24.95
2023-05-15T15:30:04.942Z,29.24
2023-05-15T15:35:08.415Z,29.69
2023-05-15T15:40:12.057Z,27.14
2023-05-15T15:45:16.222Z,25.82
2023-05-15T15:50:19.035Z,26.36
2023-05-15T15:55:23.504Z,26.57
2023-05-15T16:00:28.520Z,26.43
2023-05-15T16:05:33.557Z,26.88
2023-05-15T16:10:36.441Z,29.04
2023-05-15T16:15:40.592Z,33.14
2023-05-15T16:20:43.796Z,35.24
2023-05-15T16:25:46.545Z,34.49
2023-05-15T16:30:52.558Z,36.52
2023-05-15T16:35:56.049Z,36.09
2023-05-15T16:40:59.481Z,35.50
2023-05-15T16:46:04.410Z,35.79
2023-05-15T16:51:07.860Z,36.48
2023-05-15T16:56:12.153Z,34.61
2023-05-15T17:01:17.052Z,33.06
2023-05-15T17:06:20.441Z,32.27
2023-05-15T17:11:24.176Z,30.60
2023-05-15T17:16:29.662Z,28.99
2023-05-15T17:21:34.467Z,28.36
2023-05-15T17:26:38.590Z,25.53
2023-05-15T17:31:43.638Z,25.93
2023-05-15T17:36:46.531Z,23.54
2023-05-15T17:41:50.226Z,21.83
2023-05-15T17:46:57.205Z,21.06
2023-05-15T17:51:59.955Z,20.36
2023-05-15T17:57:05.497Z,19.86
2023-05-15T18:02:11.455Z,19.07
2023-05-15T18:07:14.429Z,18.64
2023-05-15T18:12:17.587Z,18.07
2023-05-15T18:17:21.705Z,17.46
2023-05-15T18:22:25.432Z,17.20
2023-05-15T18:27:29.411Z,16.68
2023-05-15T18:32:35.034Z,16.31
2023-05-15T18:37:37.819Z,16.06
2023-05-15T18:42:40.559Z,15.79
2023-05-15T18:47:45.025Z,15.54
2023-05-15T18:52:49.681Z,15.26
2023-05-15T18:57:52.372Z,15.07
2023-05-15T19:02:56.497Z,14.84
2023-05-15T19:07:59.339Z,14.60
2023-05-15T19:13:02.741Z,14.50
2023-05-15T19:18:07.891Z,14.36
2023-05-15T19:23:14.783Z,14.22
2023-05-15T19:28:17.520Z,14.07
2023-05-15T19:33:22.718Z,13.93
2023-05-15T19:38:25.500Z,13.83
2023-05-15T19:43:28.486Z,13.75
2023-05-15T19:48:32.974Z,13.66
2023-05-15T19:53:36.534Z,13.58
2023-05-15T19:58:40.998Z,13.45
2023-05-15T20:03:45.495Z,13.44
2023-05-15T20:08:49.282Z,13.35
2023-05-15T20:13:52.037Z,13.26
2023-05-15T20:18:58.264Z,13.24
2023-05-15T20:24:01.174Z,13.22
2023-05-15T20:29:05.962Z,13.11
2023-05-15T20:34:10.163Z,13.04
2023-05-15T20:39:14.070Z,12.99
2023-05-15T20:44:17.957Z,12.94
2023-05-15T20:49:22.577Z,12.83
2023-05-15T20:54:25.451Z,12.69
2023-05-15T20:59:28.263Z,12.59
2023-05-15T21:04:32.755Z,12.52
2023-05-15T21:09:36.741Z,12.39
2023-05-15T21:14:39.601Z,12.31
2023-05-15T21:19:43.825Z,12.22
2023-05-15T21:24:46.736Z,12.21
2023-05-15T21:29:50.371Z,12.21
2023-05-15T21:34:54.628Z,12.18
2023-05-15T21:39:57.374Z,12.16
2023-05-15T21:45:00.315Z,12.19
2023-05-15T21:50:06.322Z,12.21
2023-05-15T21:55:10.159Z,12.21
2023-05-15T22:00:14.780Z,12.23
2023-05-15T22:05:20.511Z,12.25
2023-05-15T22:10:23.435Z,12.27
2023-05-15T22:15:26.211Z,12.27
2023-05-15T22:20:30.516Z,12.23
2023-05-15T22:25:33.236Z,12.26
2023-05-15T22:30:36.051Z,12.26
2023-05-15T22:35:40.209Z,12.26
2023-05-15T22:40:42.953Z,12.28
2023-05-15T22:45:45.918Z,12.27
2023-05-15T22:50:52.189Z,12.25
2023-05-15T22:55:54.916Z,12.23
2023-05-15T23:00:58.007Z,12.19
2023-05-15T23:06:02.857Z,12.13
2023-05-15T23:11:05.839Z,12.12
2023-05-15T23:16:09.861Z,12.05
2023-05-15T23:21:14.130Z,11.98
2023-05-15T23:26:16.992Z,11.94
2023-05-15T23:31:19.958Z,11.94
2023-05-15T23:36:24.299Z,11.93
2023-05-15T23:41:27.062Z,11.85
2023-05-15T23:46:29.914Z,11.86
2023-05-15T23:51:34.033Z,11.83
2023-05-15T23:56:36.780Z,11.81
